Norfolk — WDG2147 — position and weather

sailwx.info

Track history (hours):
 
Tides and Currents Weather Stations Pressure Air Temp Water Temp Dewpoint Dewpoint Depression Visibility Wind Speed Wind Dir Waves Ship Positions

Norfolk

Owner: Virginia Pilot Boat Corporation, Virginia Beach, VA. More information available from US FCC via Universal Licensing System and Coast Guard Vessel Documentation Center.

Last reported at 2014-Oct-23 02:26 UTC. Time now 2014-Oct-24 10:21 UTC.
Position N 36°52' W 076°19'.

Length 18 m; draft 1.5 m.

Type: Pilot. MMSI: 367512630.

Date/timePositionNaut miles runAvg speedWind from/ knotsBaromVisibWave heightAir tempDewpointWater temp
2014-Oct-23 02:26N 36°52' W 076°19'5 0.3
2014-Oct-22 11:08N 36°57' W 076°21'2 2.2
2014-Oct-22 10:16N 36°55' W 076°20'4 0.4
2014-Oct-21 22:04N 36°58' W 076°25'611.5
2014-Oct-21 21:32N 36°52' W 076°21'6 3.1
2014-Oct-21 19:27N 36°58' W 076°25'0 0.1
2014-Oct-21 18:33N 36°58' W 076°25'0 0.0
2014-Oct-21 17:12N 36°58' W 076°25'0 0.2
2014-Oct-21 15:26N 36°58' W 076°25'0 0.4
2014-Oct-21 14:24N 36°58' W 076°25'0 0.2
2014-Oct-21 12:29N 36°58' W 076°25'0 0.0
2014-Oct-21 11:32N 36°58' W 076°25'3 2.0
2014-Oct-21 10:17N 36°57' W 076°22'3 3.5
2014-Oct-21 09:32N 36°58' W 076°25'0 0.0
2014-Oct-21 08:33N 36°58' W 076°25'0 0.0
2014-Oct-21 07:33N 36°58' W 076°25'0 0.0
2014-Oct-21 06:33N 36°58' W 076°25'0 0.0
2014-Oct-21 05:34N 36°58' W 076°25'0 0.0
2014-Oct-21 04:34N 36°58' W 076°25'0 0.0
2014-Oct-21 02:24N 36°58' W 076°25'0 0.0
2014-Oct-21 01:32N 36°58' W 076°25'5 5.5
2014-Oct-21 00:33N 36°60' W 076°18'1210.7
2014-Oct-20 23:28N 36°54' W 076°05'0 0.0
2014-Oct-20 22:34N 36°54' W 076°05'0 0.0
2014-Oct-20 21:33N 36°54' W 076°05'0 0.0
2014-Oct-20 20:13N 36°54' W 076°05'0 0.0
2014-Oct-20 18:20N 36°54' W 076°05'0 0.0
2014-Oct-20 17:31N 36°54' W 076°05'0 0.0
2014-Oct-20 04:23N 36°54' W 076°05'2 0.5
2014-Oct-20 00:13N 36°56' W 076°04'2 3.2
2014-Oct-19 23:32N 36°56' W 076°01'4 3.2
2014-Oct-19 22:18N 36°54' W 076°05'0 0.0
2014-Oct-19 17:32N 36°54' W 076°05'2 1.2
2014-Oct-19 15:25N 36°56' W 076°03'2 2.3
2014-Oct-19 14:21N 36°54' W 076°05'0 0.0
2014-Oct-19 09:26N 36°54' W 076°05'0 0.0
2014-Oct-19 08:31N 36°54' W 076°05'0 0.0
2014-Oct-19 07:28N 36°54' W 076°05'3 3.6
2014-Oct-19 06:33N 36°56' W 076°02'3 3.1
2014-Oct-19 05:31N 36°54' W 076°05'0 0.1
2014-Oct-19 02:27N 36°55' W 076°06'0 0.2
2014-Oct-19 01:33N 36°54' W 076°05'0 0.0
2014-Oct-19 00:26N 36°54' W 076°05'0 0.0
2014-Oct-18 23:33N 36°54' W 076°05'0 0.0
2014-Oct-18 22:33N 36°54' W 076°05'0 0.0
2014-Oct-18 21:33N 36°54' W 076°05'2 2.3
2014-Oct-18 20:33N 36°56' W 076°03'2 1.9
2014-Oct-18 19:21N 36°54' W 076°05'6 7.0
2014-Oct-18 18:33N 36°56' W 075°59'6 5.4
2014-Oct-18 17:32N 36°54' W 076°05'5 4.8
2014-Oct-18 16:33N 36°57' W 076°01'5 4.7
2014-Oct-18 15:33N 36°54' W 076°05'0 0.0
2014-Oct-18 14:32N 36°54' W 076°05'0 0.0
2014-Oct-18 13:33N 36°54' W 076°05'3 2.9
2014-Oct-18 12:27N 36°56' W 076°02'3 3.5
2014-Oct-18 11:33N 36°54' W 076°05'3 3.3
2014-Oct-18 10:33N 36°56' W 076°02'3 3.3
2014-Oct-18 09:33N 36°54' W 076°05'2 2.3
2014-Oct-18 08:32N 36°56' W 076°03'2 2.4
2014-Oct-18 07:33N 36°54' W 076°05'3 2.7
2014-Oct-18 06:33N 36°56' W 076°03'2 2.3
2014-Oct-18 05:31N 36°55' W 076°05'1 0.5
2014-Oct-18 04:33N 36°54' W 076°05'3 3.5
2014-Oct-18 03:33N 36°56' W 076°02'3 3.4
2014-Oct-18 02:33N 36°54' W 076°05'0 0.0
2014-Oct-18 01:34N 36°54' W 076°05'0 0.0
2014-Oct-18 00:33N 36°54' W 076°05'0 0.0
2014-Oct-17 23:33N 36°54' W 076°05'0 0.0
2014-Oct-17 22:33N 36°54' W 076°05'0 0.0
2014-Oct-17 21:33N 36°54' W 076°05'0 0.0
2014-Oct-17 20:33N 36°54' W 076°05'0 0.0
2014-Oct-17 19:34N 36°54' W 076°05'5 4.6
2014-Oct-17 18:32N 36°56' W 075°60'5 4.5
2014-Oct-17 17:30N 36°54' W 076°05'0 0.2
2014-Oct-17 16:33N 36°55' W 076°06'5 4.9
2014-Oct-17 15:33N 36°56' W 075°60'1 1.0
2014-Oct-17 14:33N 36°57' W 076°01'4 4.3
2014-Oct-17 13:33N 36°54' W 076°05'0 0.0
2014-Oct-17 12:33N 36°54' W 076°05'1 1.3
2014-Oct-17 11:33N 36°56' W 076°05'3 3.3
2014-Oct-17 10:31N 36°56' W 076°00'4 4.5
2014-Oct-17 09:33N 36°54' W 076°05'0 0.0
2014-Oct-17 08:29N 36°54' W 076°05'6 5.0
2014-Oct-17 07:22N 36°56' W 075°59'4 4.8
2014-Oct-17 06:33N 36°56' W 076°04'2 2.0
2014-Oct-17 05:33N 36°54' W 076°05'0 0.0
2014-Oct-17 04:27N 36°54' W 076°05'0 0.0
2014-Oct-17 03:33N 36°54' W 076°05'0 0.0
2014-Oct-17 02:33N 36°54' W 076°05'0 0.0
2014-Oct-17 01:33N 36°54' W 076°05'0 0.0
2014-Oct-17 00:32N 36°54' W 076°05'0 0.0
2014-Oct-16 23:33N 36°54' W 076°05'0 0.0
2014-Oct-16 22:33N 36°54' W 076°05'0 0.0
2014-Oct-16 21:33N 36°54' W 076°05'0 0.0
2014-Oct-16 17:33N 36°54' W 076°05'0 0.0
2014-Oct-16 16:33N 36°54' W 076°05'0 0.0
2014-Oct-16 15:33N 36°54' W 076°05'0 0.0
2014-Oct-16 14:31N 36°54' W 076°05'0 0.0
2014-Oct-16 13:29N 36°54' W 076°05'3 2.7
2014-Oct-16 12:33N 36°56' W 076°03'3 2.5
2014-Oct-16 11:32N 36°54' W 076°05'0 0.0
2014-Oct-16 10:28N 36°54' W 076°05'0 0.0
2014-Oct-16 09:24N 36°54' W 076°05'0 0.0
2014-Oct-16 08:31N 36°54' W 076°05'3 2.6
2014-Oct-16 07:33N 36°56' W 076°03'1 1.2
2014-Oct-16 06:29N 36°56' W 076°01'4 1.8
2014-Oct-16 04:33N 36°54' W 076°05'0 0.0
2014-Oct-16 03:18N 36°54' W 076°05'0 0.0
2014-Oct-16 02:30N 36°54' W 076°05'0 0.0
2014-Oct-16 01:29N 36°54' W 076°05'6 6.6
2014-Oct-16 00:33N 36°56' W 075°58'6 6.1
2014-Oct-15 23:33N 36°54' W 076°05'0 0.0
2014-Oct-15 22:31N 36°54' W 076°05'0 0.0
2014-Oct-15 21:28N 36°54' W 076°05'0 0.0
2014-Oct-15 20:31N 36°54' W 076°05'4 3.7
2014-Oct-15 19:33N 36°57' W 076°02'1 0.6
2014-Oct-15 18:33N 36°56' W 076°01'4 3.5
2014-Oct-15 17:27N 36°54' W 076°05'0 0.0
2014-Oct-15 16:33N 36°54' W 076°05'0 0.0
2014-Oct-15 15:33N 36°54' W 076°05'0 0.0
2014-Oct-15 14:33N 36°54' W 076°05'5 5.3
2014-Oct-15 13:33N 36°56' W 075°59'5 5.3
2014-Oct-15 12:34N 36°54' W 076°05'2 1.9
2014-Oct-15 11:33N 36°56' W 076°04'2 1.9
2014-Oct-15 10:33N 36°54' W 076°05'0 0.0
2014-Oct-15 09:32N 36°54' W 076°05'3 3.0
2014-Oct-15 08:32N 36°56' W 076°02'2 2.1
2014-Oct-15 07:33N 36°55' W 076°05'1 1.1
2014-Oct-15 06:33N 36°54' W 076°05'0 0.0
2014-Oct-15 05:04N 36°54' W 076°05'0 0.0
2014-Oct-15 04:14N 36°54' W 076°05'0 0.0
2014-Oct-15 03:26N 36°54' W 076°05'0 0.0
2014-Oct-15 02:33N 36°54' W 076°05'0 0.0
2014-Oct-15 01:32N 36°54' W 076°05'4 4.5
2014-Oct-15 00:32N 36°57' W 076°00'4 4.5
2014-Oct-14 23:33N 36°55' W 076°05'0 0.3
2014-Oct-14 22:28N 36°54' W 076°05'0 0.0
2014-Oct-14 21:30N 36°54' W 076°05'0 0.0
2014-Oct-14 20:27N 36°54' W 076°05'0 0.0
2014-Oct-14 19:31N 36°54' W 076°05'0 0.0
2014-Oct-14 18:31N 36°54' W 076°05'0 0.0
2014-Oct-14 14:33N 36°54' W 076°05'0 0.0
2014-Oct-14 13:29N 36°54' W 076°05'4 4.4
2014-Oct-14 12:33N 36°57' W 076°01'1 1.5
2014-Oct-14 11:33N 36°56' W 076°03'3 2.5
2014-Oct-14 10:31N 36°54' W 076°05'0 0.0
2014-Oct-14 09:31N 36°54' W 076°05'2 2.6
2014-Oct-14 08:34N 36°56' W 076°03'2 2.4
2014-Oct-14 07:31N 36°54' W 076°05'1 0.7
2014-Oct-14 06:33N 36°55' W 076°05'1 0.6
2014-Oct-14 05:31N 36°54' W 076°05'0 0.0
2014-Oct-14 04:31N 36°54' W 076°05'0 0.0
2014-Oct-14 03:29N 36°54' W 076°05'4 4.2
2014-Oct-14 02:33N 36°57' W 076°02'4 3.9
2014-Oct-14 01:33N 36°54' W 076°05'6 5.8
2014-Oct-14 00:31N 36°59' W 076°00'6 6.0
2014-Oct-13 23:31N 36°54' W 076°05'0 0.0
2014-Oct-13 22:26N 36°54' W 076°05'0 0.0
2014-Oct-13 21:32N 36°54' W 076°05'0 0.0
2014-Oct-13 20:34N 36°54' W 076°05'3 2.8
2014-Oct-13 19:31N 36°56' W 076°03'2 1.7
2014-Oct-13 18:32N 36°56' W 076°04'1 1.3
2014-Oct-13 17:30N 36°54' W 076°05'0 0.0
2014-Oct-13 16:32N 36°54' W 076°05'0 0.0
2014-Oct-13 15:30N 36°54' W 076°05'3 3.2
2014-Oct-13 14:33N 36°57' W 076°04'4 4.1
2014-Oct-13 13:33N 36°57' W 075°59'4 4.4
2014-Oct-13 12:32N 36°55' W 076°05'1 1.2
2014-Oct-13 11:31N 36°54' W 076°05'0 0.0
2014-Oct-13 10:33N 36°54' W 076°05'0 0.0
2014-Oct-13 09:30N 36°54' W 076°05'4 4.6
2014-Oct-13 08:33N 36°57' W 076°01'4 4.2
2014-Oct-13 07:33N 36°54' W 076°05'0 0.0
2014-Oct-13 06:33N 36°54' W 076°05'0 0.0
2014-Oct-13 05:33N 36°54' W 076°05'0 0.0
2014-Oct-13 04:32N 36°54' W 076°05'0 0.0
2014-Oct-13 03:28N 36°54' W 076°05'  
Track history (hours):
 
Tides and Currents Weather Stations Pressure Air Temp Water Temp Dewpoint Dewpoint Depression Visibility Wind Speed Wind Dir Waves Ship Positions

Norfolk

Owner: Virginia Pilot Boat Corporation, Virginia Beach, VA. More information available from US FCC via Universal Licensing System and Coast Guard Vessel Documentation Center.

Last reported at 2014-Oct-23 02:26 UTC. Time now 2014-Oct-24 10:21 UTC.
Position N 36°52' W 076°19'.

Length 18 m; draft 1.5 m.

Type: Pilot. MMSI: 367512630.

Date/timePositionNaut miles runAvg speedWind from/ knotsBaromVisibWave heightAir tempDewpointWater temp
2014-Oct-23 02:26N 36°52' W 076°19'5 0.3
2014-Oct-22 11:08N 36°57' W 076°21'2 2.2
2014-Oct-22 10:16N 36°55' W 076°20'4 0.4
2014-Oct-21 22:04N 36°58' W 076°25'611.5
2014-Oct-21 21:32N 36°52' W 076°21'6 3.1
2014-Oct-21 19:27N 36°58' W 076°25'0 0.1
2014-Oct-21 18:33N 36°58' W 076°25'0 0.0
2014-Oct-21 17:12N 36°58' W 076°25'0 0.2
2014-Oct-21 15:26N 36°58' W 076°25'0 0.4
2014-Oct-21 14:24N 36°58' W 076°25'0 0.2
2014-Oct-21 12:29N 36°58' W 076°25'0 0.0
2014-Oct-21 11:32N 36°58' W 076°25'3 2.0
2014-Oct-21 10:17N 36°57' W 076°22'3 3.5
2014-Oct-21 09:32N 36°58' W 076°25'0 0.0
2014-Oct-21 08:33N 36°58' W 076°25'0 0.0
2014-Oct-21 07:33N 36°58' W 076°25'0 0.0
2014-Oct-21 06:33N 36°58' W 076°25'0 0.0
2014-Oct-21 05:34N 36°58' W 076°25'0 0.0
2014-Oct-21 04:34N 36°58' W 076°25'0 0.0
2014-Oct-21 02:24N 36°58' W 076°25'0 0.0
2014-Oct-21 01:32N 36°58' W 076°25'5 5.5
2014-Oct-21 00:33N 36°60' W 076°18'1210.7
2014-Oct-20 23:28N 36°54' W 076°05'0 0.0
2014-Oct-20 22:34N 36°54' W 076°05'0 0.0
2014-Oct-20 21:33N 36°54' W 076°05'0 0.0
2014-Oct-20 20:13N 36°54' W 076°05'0 0.0
2014-Oct-20 18:20N 36°54' W 076°05'0 0.0
2014-Oct-20 17:31N 36°54' W 076°05'0 0.0
2014-Oct-20 04:23N 36°54' W 076°05'2 0.5
2014-Oct-20 00:13N 36°56' W 076°04'2 3.2
2014-Oct-19 23:32N 36°56' W 076°01'4 3.2
2014-Oct-19 22:18N 36°54' W 076°05'0 0.0
2014-Oct-19 17:32N 36°54' W 076°05'2 1.2
2014-Oct-19 15:25N 36°56' W 076°03'2 2.3
2014-Oct-19 14:21N 36°54' W 076°05'0 0.0
2014-Oct-19 09:26N 36°54' W 076°05'0 0.0
2014-Oct-19 08:31N 36°54' W 076°05'0 0.0
2014-Oct-19 07:28N 36°54' W 076°05'3 3.6
2014-Oct-19 06:33N 36°56' W 076°02'3 3.1
2014-Oct-19 05:31N 36°54' W 076°05'0 0.1
2014-Oct-19 02:27N 36°55' W 076°06'0 0.2
2014-Oct-19 01:33N 36°54' W 076°05'0 0.0
2014-Oct-19 00:26N 36°54' W 076°05'0 0.0
2014-Oct-18 23:33N 36°54' W 076°05'0 0.0
2014-Oct-18 22:33N 36°54' W 076°05'0 0.0
2014-Oct-18 21:33N 36°54' W 076°05'2 2.3
2014-Oct-18 20:33N 36°56' W 076°03'2 1.9
2014-Oct-18 19:21N 36°54' W 076°05'6 7.0
2014-Oct-18 18:33N 36°56' W 075°59'6 5.4
2014-Oct-18 17:32N 36°54' W 076°05'5 4.8
2014-Oct-18 16:33N 36°57' W 076°01'5 4.7
2014-Oct-18 15:33N 36°54' W 076°05'0 0.0
2014-Oct-18 14:32N 36°54' W 076°05'0 0.0
2014-Oct-18 13:33N 36°54' W 076°05'3 2.9
2014-Oct-18 12:27N 36°56' W 076°02'3 3.5
2014-Oct-18 11:33N 36°54' W 076°05'3 3.3
2014-Oct-18 10:33N 36°56' W 076°02'3 3.3
2014-Oct-18 09:33N 36°54' W 076°05'2 2.3
2014-Oct-18 08:32N 36°56' W 076°03'2 2.4
2014-Oct-18 07:33N 36°54' W 076°05'3 2.7
2014-Oct-18 06:33N 36°56' W 076°03'2 2.3
2014-Oct-18 05:31N 36°55' W 076°05'1 0.5
2014-Oct-18 04:33N 36°54' W 076°05'3 3.5
2014-Oct-18 03:33N 36°56' W 076°02'3 3.4
2014-Oct-18 02:33N 36°54' W 076°05'0 0.0
2014-Oct-18 01:34N 36°54' W 076°05'0 0.0
2014-Oct-18 00:33N 36°54' W 076°05'0 0.0
2014-Oct-17 23:33N 36°54' W 076°05'0 0.0
2014-Oct-17 22:33N 36°54' W 076°05'0 0.0
2014-Oct-17 21:33N 36°54' W 076°05'0 0.0
2014-Oct-17 20:33N 36°54' W 076°05'0 0.0
2014-Oct-17 19:34N 36°54' W 076°05'5 4.6
2014-Oct-17 18:32N 36°56' W 075°60'5 4.5
2014-Oct-17 17:30N 36°54' W 076°05'0 0.2
2014-Oct-17 16:33N 36°55' W 076°06'5 4.9
2014-Oct-17 15:33N 36°56' W 075°60'1 1.0
2014-Oct-17 14:33N 36°57' W 076°01'4 4.3
2014-Oct-17 13:33N 36°54' W 076°05'0 0.0
2014-Oct-17 12:33N 36°54' W 076°05'1 1.3
2014-Oct-17 11:33N 36°56' W 076°05'3 3.3
2014-Oct-17 10:31N 36°56' W 076°00'4 4.5
2014-Oct-17 09:33N 36°54' W 076°05'0 0.0
2014-Oct-17 08:29N 36°54' W 076°05'6 5.0
2014-Oct-17 07:22N 36°56' W 075°59'4 4.8
2014-Oct-17 06:33N 36°56' W 076°04'2 2.0
2014-Oct-17 05:33N 36°54' W 076°05'0 0.0
2014-Oct-17 04:27N 36°54' W 076°05'0 0.0
2014-Oct-17 03:33N 36°54' W 076°05'0 0.0
2014-Oct-17 02:33N 36°54' W 076°05'0 0.0
2014-Oct-17 01:33N 36°54' W 076°05'0 0.0
2014-Oct-17 00:32N 36°54' W 076°05'0 0.0
2014-Oct-16 23:33N 36°54' W 076°05'0 0.0
2014-Oct-16 22:33N 36°54' W 076°05'0 0.0
2014-Oct-16 21:33N 36°54' W 076°05'0 0.0
2014-Oct-16 17:33N 36°54' W 076°05'0 0.0
2014-Oct-16 16:33N 36°54' W 076°05'0 0.0
2014-Oct-16 15:33N 36°54' W 076°05'0 0.0
2014-Oct-16 14:31N 36°54' W 076°05'0 0.0
2014-Oct-16 13:29N 36°54' W 076°05'3 2.7
2014-Oct-16 12:33N 36°56' W 076°03'3 2.5
2014-Oct-16 11:32N 36°54' W 076°05'0 0.0
2014-Oct-16 10:28N 36°54' W 076°05'0 0.0
2014-Oct-16 09:24N 36°54' W 076°05'0 0.0
2014-Oct-16 08:31N 36°54' W 076°05'3 2.6
2014-Oct-16 07:33N 36°56' W 076°03'1 1.2
2014-Oct-16 06:29N 36°56' W 076°01'4 1.8
2014-Oct-16 04:33N 36°54' W 076°05'0 0.0
2014-Oct-16 03:18N 36°54' W 076°05'0 0.0
2014-Oct-16 02:30N 36°54' W 076°05'0 0.0
2014-Oct-16 01:29N 36°54' W 076°05'6 6.6
2014-Oct-16 00:33N 36°56' W 075°58'6 6.1
2014-Oct-15 23:33N 36°54' W 076°05'0 0.0
2014-Oct-15 22:31N 36°54' W 076°05'0 0.0
2014-Oct-15 21:28N 36°54' W 076°05'0 0.0
2014-Oct-15 20:31N 36°54' W 076°05'4 3.7
2014-Oct-15 19:33N 36°57' W 076°02'1 0.6
2014-Oct-15 18:33N 36°56' W 076°01'4 3.5
2014-Oct-15 17:27N 36°54' W 076°05'0 0.0
2014-Oct-15 16:33N 36°54' W 076°05'0 0.0
2014-Oct-15 15:33N 36°54' W 076°05'0 0.0
2014-Oct-15 14:33N 36°54' W 076°05'5 5.3
2014-Oct-15 13:33N 36°56' W 075°59'5 5.3
2014-Oct-15 12:34N 36°54' W 076°05'2 1.9
2014-Oct-15 11:33N 36°56' W 076°04'2 1.9
2014-Oct-15 10:33N 36°54' W 076°05'0 0.0
2014-Oct-15 09:32N 36°54' W 076°05'3 3.0
2014-Oct-15 08:32N 36°56' W 076°02'2 2.1
2014-Oct-15 07:33N 36°55' W 076°05'1 1.1
2014-Oct-15 06:33N 36°54' W 076°05'0 0.0
2014-Oct-15 05:04N 36°54' W 076°05'0 0.0
2014-Oct-15 04:14N 36°54' W 076°05'0 0.0
2014-Oct-15 03:26N 36°54' W 076°05'0 0.0
2014-Oct-15 02:33N 36°54' W 076°05'0 0.0
2014-Oct-15 01:32N 36°54' W 076°05'4 4.5
2014-Oct-15 00:32N 36°57' W 076°00'4 4.5
2014-Oct-14 23:33N 36°55' W 076°05'0 0.3
2014-Oct-14 22:28N 36°54' W 076°05'0 0.0
2014-Oct-14 21:30N 36°54' W 076°05'0 0.0
2014-Oct-14 20:27N 36°54' W 076°05'0 0.0
2014-Oct-14 19:31N 36°54' W 076°05'0 0.0
2014-Oct-14 18:31N 36°54' W 076°05'0 0.0
2014-Oct-14 14:33N 36°54' W 076°05'0 0.0
2014-Oct-14 13:29N 36°54' W 076°05'4 4.4
2014-Oct-14 12:33N 36°57' W 076°01'1 1.5
2014-Oct-14 11:33N 36°56' W 076°03'3 2.5
2014-Oct-14 10:31N 36°54' W 076°05'0 0.0
2014-Oct-14 09:31N 36°54' W 076°05'2 2.6
2014-Oct-14 08:34N 36°56' W 076°03'2 2.4
2014-Oct-14 07:31N 36°54' W 076°05'1 0.7
2014-Oct-14 06:33N 36°55' W 076°05'1 0.6
2014-Oct-14 05:31N 36°54' W 076°05'0 0.0
2014-Oct-14 04:31N 36°54' W 076°05'0 0.0
2014-Oct-14 03:29N 36°54' W 076°05'4 4.2
2014-Oct-14 02:33N 36°57' W 076°02'4 3.9
2014-Oct-14 01:33N 36°54' W 076°05'6 5.8
2014-Oct-14 00:31N 36°59' W 076°00'6 6.0
2014-Oct-13 23:31N 36°54' W 076°05'0 0.0
2014-Oct-13 22:26N 36°54' W 076°05'0 0.0
2014-Oct-13 21:32N 36°54' W 076°05'0 0.0
2014-Oct-13 20:34N 36°54' W 076°05'3 2.8
2014-Oct-13 19:31N 36°56' W 076°03'2 1.7
2014-Oct-13 18:32N 36°56' W 076°04'1 1.3
2014-Oct-13 17:30N 36°54' W 076°05'0 0.0
2014-Oct-13 16:32N 36°54' W 076°05'0 0.0
2014-Oct-13 15:30N 36°54' W 076°05'3 3.2
2014-Oct-13 14:33N 36°57' W 076°04'4 4.1
2014-Oct-13 13:33N 36°57' W 075°59'4 4.4
2014-Oct-13 12:32N 36°55' W 076°05'1 1.2
2014-Oct-13 11:31N 36°54' W 076°05'0 0.0
2014-Oct-13 10:33N 36°54' W 076°05'0 0.0
2014-Oct-13 09:30N 36°54' W 076°05'4 4.6
2014-Oct-13 08:33N 36°57' W 076°01'4 4.2
2014-Oct-13 07:33N 36°54' W 076°05'0 0.0
2014-Oct-13 06:33N 36°54' W 076°05'0 0.0
2014-Oct-13 05:33N 36°54' W 076°05'0 0.0
2014-Oct-13 04:32N 36°54' W 076°05'0 0.0
2014-Oct-13 03:28N 36°54' W 076°05'  

Dump ship's entire track history